Time;durP1;ratioP1;P1;durP2;ratioP2;P2;SDS_P1;SDS_P2;PMS_P1;PMS_P2;Temp;Humidity;BMP_temperature;BMP_pressure;BME280_temperature;BME280_humidity;BME280_pressure;Samples;Min_cycle;Max_cycle;Signal;HPM_P1;HPM_P2
2023/05/23 00:00:43;;;;;;;4.10;3.53;;;18.80;90.10;;;;;;5029035;28;20589;-71
2023/05/23 00:03:09;;;;;;;4.57;3.87;;;18.70;90.20;;;;;;5030063;28;20446;-71
2023/05/23 00:05:35;;;;;;;4.13;3.33;;;18.70;90.30;;;;;;5028995;28;20181;-71
2023/05/23 00:08:01;;;;;;;5.20;4.13;;;18.70;90.30;;;;;;5029497;28;20801;-71
2023/05/23 00:10:27;;;;;;;5.23;4.10;;;18.70;90.30;;;;;;5026069;28;20186;-71
2023/05/23 00:12:52;;;;;;;4.80;3.80;;;18.70;90.30;;;;;;5029374;28;20177;-71
2023/05/23 00:15:18;;;;;;;4.87;3.73;;;18.70;90.40;;;;;;5028022;28;20203;-71
2023/05/23 00:17:45;;;;;;;3.47;3.20;;;18.70;90.50;;;;;;5024051;28;20184;-72
2023/05/23 00:20:11;;;;;;;6.23;3.70;;;18.70;90.40;;;;;;5014385;28;20419;-71
2023/05/23 00:22:43;;;;;;;5.33;3.63;;;18.70;90.60;;;;;;5026973;28;20416;-71
2023/05/23 00:25:09;;;;;;;4.07;3.67;;;18.60;90.70;;;;;;5027869;28;20181;-71
2023/05/23 00:27:35;;;;;;;5.10;4.70;;;18.60;90.80;;;;;;5028378;28;20450;-71
2023/05/23 00:30:03;;;;;;;3.93;3.10;;;18.60;90.80;;;;;;5028263;28;20813;-72
2023/05/23 00:32:28;;;;;;;3.30;3.00;;;18.50;90.90;;;;;;5028181;28;20460;-71
2023/05/23 00:34:54;;;;;;;4.67;3.10;;;18.40;91.00;;;;;;5021520;28;20505;-72
2023/05/23 00:37:21;;;;;;;5.30;3.93;;;18.40;91.20;;;;;;5021849;28;20196;-72
2023/05/23 00:39:50;;;;;;;4.60;4.10;;;18.40;91.70;;;;;;5027764;28;20887;-71
2023/05/23 00:42:15;;;;;;;4.40;3.60;;;18.40;91.40;;;;;;5026412;28;20492;-71
2023/05/23 00:44:41;;;;;;;4.37;3.83;;;18.30;91.40;;;;;;5029080;28;20505;-70
2023/05/23 00:47:07;;;;;;;4.43;4.03;;;18.30;91.50;;;;;;5028823;28;20241;-71
2023/05/23 00:49:33;;;;;;;5.33;3.60;;;18.30;91.60;;;;;;5026084;28;20283;-70
2023/05/23 00:51:59;;;;;;;4.07;3.60;;;18.20;91.60;;;;;;5028493;28;20823;-69
2023/05/23 00:54:30;;;;;;;5.63;4.37;;;18.20;91.70;;;;;;5024247;28;20529;-69
2023/05/23 00:56:57;;;;;;;6.83;3.80;;;18.20;91.80;;;;;;5025539;28;20465;-70
2023/05/23 00:59:24;;;;;;;4.23;3.53;;;18.20;91.90;;;;;;5026205;28;20422;-71
2023/05/23 01:01:51;;;;;;;4.17;3.60;;;18.10;92.00;;;;;;5021063;28;20410;-71
2023/05/23 01:04:19;;;;;;;6.00;3.93;;;18.10;92.20;;;;;;5028972;28;20670;-71
2023/05/23 01:06:47;;;;;;;5.60;4.13;;;18.00;92.20;;;;;;5025543;28;20477;-71
2023/05/23 01:09:15;;;;;;;5.17;3.53;;;18.00;92.30;;;;;;5028665;28;20472;-72
2023/05/23 01:11:46;;;;;;;7.20;4.20;;;17.90;92.40;;;;;;5018097;28;20426;-71
2023/05/23 01:14:17;;;;;;;7.33;4.50;;;17.90;92.50;;;;;;5012621;28;20863;-71
2023/05/23 01:16:56;;;;;;;4.43;3.40;;;17.90;92.60;;;;;;5022247;28;20960;-71
2023/05/23 01:19:44;;;;;;;7.00;3.63;;;17.90;92.70;;;;;;5023205;28;20425;-71
2023/05/23 01:22:49;;;;;;;4.63;3.60;;;17.90;92.80;;;;;;5023450;28;20766;-71
2023/05/23 01:25:38;;;;;;;4.33;3.77;;;17.90;92.80;;;;;;4993620;28;20424;-71
2023/05/23 01:28:06;;;;;;;4.87;4.13;;;17.90;92.80;;;;;;5024960;28;20449;-71
2023/05/23 01:30:35;;;;;;;6.40;3.80;;;17.90;92.90;;;;;;5024488;28;20413;-71
2023/05/23 01:33:01;;;;;;;4.53;3.63;;;17.90;93.00;;;;;;5022653;28;20417;-71
2023/05/23 01:35:27;;;;;;;4.43;3.80;;;17.90;93.10;;;;;;5022764;28;20457;-71
2023/05/23 01:37:54;;;;;;;4.53;4.13;;;17.90;93.20;;;;;;5020674;28;20440;-71
2023/05/23 01:40:20;;;;;;;3.80;3.33;;;17.90;93.20;;;;;;5028882;28;20539;-70
2023/05/23 01:42:47;;;;;;;4.20;2.80;;;17.90;93.30;;;;;;5021542;28;20423;-71
2023/05/23 01:45:14;;;;;;;4.53;3.77;;;17.90;93.30;;;;;;5029566;28;20456;-70
2023/05/23 01:47:40;;;;;;;4.47;4.07;;;17.90;93.40;;;;;;5015887;28;20495;-70
2023/05/23 01:50:08;;;;;;;4.20;3.80;;;17.90;93.40;;;;;;5016177;28;20834;-70
2023/05/23 01:52:34;;;;;;;3.90;3.43;;;17.90;93.40;;;;;;5013694;28;20503;-71
2023/05/23 01:55:00;;;;;;;3.97;3.57;;;17.90;93.50;;;;;;5020007;28;20458;-71
2023/05/23 01:57:29;;;;;;;3.83;3.50;;;17.90;93.50;;;;;;5021565;28;20524;-71
2023/05/23 01:59:55;;;;;;;5.63;3.67;;;17.90;93.60;;;;;;5022400;28;20459;-71
2023/05/23 02:02:21;;;;;;;5.57;4.73;;;17.90;93.70;;;;;;5015180;28;20430;-70
2023/05/23 02:04:48;;;;;;;5.43;4.40;;;17.90;93.70;;;;;;5022941;28;20420;-69
2023/05/23 02:07:14;;;;;;;4.43;4.03;;;17.90;93.80;;;;;;5024202;28;20204;-70
2023/05/23 02:09:39;;;;;;;6.77;4.03;;;17.90;93.90;;;;;;5022905;28;20411;-69
2023/05/23 02:12:05;;;;;;;6.07;4.20;;;17.80;93.90;;;;;;5024156;28;20651;-71
2023/05/23 02:14:31;;;;;;;5.33;4.27;;;17.80;94.00;;;;;;5015885;28;20202;-71
2023/05/23 02:16:56;;;;;;;5.97;4.00;;;17.80;94.10;;;;;;5024163;28;20914;-71
2023/05/23 02:19:22;;;;;;;5.17;3.63;;;17.80;94.10;;;;;;5022688;28;20182;-70
2023/05/23 02:21:48;;;;;;;6.20;4.30;;;17.80;94.20;;;;;;5023327;28;20173;-71
2023/05/23 02:24:13;;;;;;;4.80;4.07;;;17.80;94.20;;;;;;5024177;28;20720;-71
2023/05/23 02:26:40;;;;;;;6.80;4.20;;;17.80;94.20;;;;;;5018489;28;20210;-70
2023/05/23 02:29:06;;;;;;;8.07;4.53;;;17.70;94.30;;;;;;5024626;28;20646;-71
2023/05/23 02:31:31;;;;;;;4.43;4.03;;;17.70;94.50;;;;;;5022193;28;20423;-72
2023/05/23 02:33:57;;;;;;;7.83;4.60;;;17.70;94.50;;;;;;5023814;28;20525;-69
2023/05/23 02:36:22;;;;;;;6.47;4.20;;;17.70;94.50;;;;;;5022625;28;20174;-71
2023/05/23 02:38:48;;;;;;;4.77;4.30;;;17.70;94.70;;;;;;5023658;28;20204;-70
2023/05/23 02:41:13;;;;;;;7.57;5.00;;;17.70;94.80;;;;;;5023898;28;20170;-69
2023/05/23 02:43:39;;;;;;;4.50;4.10;;;17.70;94.80;;;;;;5020224;28;20270;-70
2023/05/23 02:46:05;;;;;;;9.63;4.47;;;17.70;94.90;;;;;;5021738;28;20183;-71
2023/05/23 02:48:30;;;;;;;5.30;3.73;;;17.60;95.00;;;;;;5019367;28;20718;-71
2023/05/23 02:50:56;;;;;;;6.80;4.20;;;17.60;95.10;;;;;;5023762;28;20368;-71
2023/05/23 02:53:21;;;;;;;4.90;4.40;;;17.60;95.20;;;;;;5019201;28;20190;-70
2023/05/23 02:55:47;;;;;;;6.60;4.50;;;17.60;95.10;;;;;;5009616;28;20195;-71
2023/05/23 02:58:13;;;;;;;6.40;5.30;;;17.60;95.20;;;;;;5026017;28;20206;-73
2023/05/23 03:00:39;;;;;;;6.20;4.53;;;17.60;95.30;;;;;;5017880;28;20179;-70
2023/05/23 03:03:04;;;;;;;4.23;3.83;;;17.60;95.40;;;;;;5018847;28;20427;-71
2023/05/23 03:05:30;;;;;;;7.60;5.17;;;17.60;95.50;;;;;;5019607;28;20276;-71
2023/05/23 03:07:56;;;;;;;7.40;4.43;;;17.50;95.60;;;;;;5022263;28;20248;-71
2023/05/23 03:10:22;;;;;;;4.70;4.30;;;17.60;95.60;;;;;;5021430;28;20218;-71
2023/05/23 03:12:47;;;;;;;10.63;4.93;;;17.50;96.00;;;;;;5022904;28;20455;-70
2023/05/23 03:15:13;;;;;;;4.53;4.13;;;17.50;95.60;;;;;;5022462;28;20203;-71
2023/05/23 03:17:38;;;;;;;5.53;4.40;;;17.50;95.70;;;;;;5016866;28;20269;-70
2023/05/23 03:20:08;;;;;;;4.67;4.27;;;17.50;96.00;;;;;;5024570;28;20520;-71
2023/05/23 03:22:34;;;;;;;5.20;4.53;;;17.50;95.90;;;;;;5019802;28;20190;-70
2023/05/23 03:25:00;;;;;;;10.27;5.07;;;17.50;96.40;;;;;;5014111;28;20852;-69
2023/05/23 03:27:26;;;;;;;4.97;4.57;;;17.50;96.10;;;;;;5020139;28;20495;-72
2023/05/23 03:29:51;;;;;;;5.33;4.30;;;17.50;96.20;;;;;;5024212;28;20259;-71
2023/05/23 03:32:17;;;;;;;4.90;4.40;;;17.50;96.20;;;;;;5022478;28;20182;-72
2023/05/23 03:34:42;;;;;;;4.87;4.23;;;17.40;96.30;;;;;;5019457;28;20685;-71
2023/05/23 03:37:08;;;;;;;9.80;4.43;;;17.40;96.80;;;;;;5024840;28;20200;-70
2023/05/23 03:39:33;;;;;;;4.77;4.33;;;17.40;96.50;;;;;;5020113;28;20222;-72
2023/05/23 03:41:59;;;;;;;5.03;4.63;;;17.40;96.70;;;;;;5016543;28;20178;-72
2023/05/23 03:44:25;;;;;;;7.50;5.20;;;17.30;96.80;;;;;;5014908;28;20187;-69
2023/05/23 03:46:50;;;;;;;10.23;4.80;;;17.30;96.80;;;;;;5023075;28;20200;-71
2023/05/23 03:49:16;;;;;;;4.70;4.30;;;17.30;97.00;;;;;;5021923;28;20560;-72
2023/05/23 03:51:41;;;;;;;5.30;4.73;;;17.30;97.20;;;;;;5019151;28;20184;-72
2023/05/23 03:54:07;;;;;;;8.53;4.63;;;17.30;97.20;;;;;;5026233;28;20274;-70
2023/05/23 03:56:33;;;;;;;4.50;4.10;;;17.30;97.20;;;;;;5020565;28;20256;-71
2023/05/23 03:58:58;;;;;;;8.10;4.37;;;17.20;97.20;;;;;;5021086;28;20644;-70
2023/05/23 04:01:24;;;;;;;4.33;3.93;;;17.20;97.30;;;;;;5009718;28;20179;-71
2023/05/23 04:03:50;;;;;;;5.47;4.43;;;17.20;97.30;;;;;;5017808;28;20166;-70
2023/05/23 04:06:16;;;;;;;6.17;4.60;;;17.20;97.40;;;;;;5005444;28;20180;-70
2023/05/23 04:08:42;;;;;;;6.10;4.40;;;17.20;97.40;;;;;;5016679;28;20175;-71
2023/05/23 04:11:08;;;;;;;5.70;5.20;;;17.20;97.50;;;;;;5019242;28;20427;-71
2023/05/23 04:13:34;;;;;;;5.03;4.53;;;17.20;97.60;;;;;;5028570;28;20201;-71
2023/05/23 04:16:00;;;;;;;5.70;4.73;;;17.20;97.70;;;;;;5019901;28;20170;-72
2023/05/23 04:18:27;;;;;;;5.53;5.03;;;17.20;97.80;;;;;;5022715;28;20426;-72
2023/05/23 04:20:53;;;;;;;6.07;5.50;;;17.10;97.80;;;;;;5024933;28;21014;-73
2023/05/23 04:23:18;;;;;;;6.33;4.93;;;17.10;97.90;;;;;;5019549;28;20499;-71
2023/05/23 04:25:44;;;;;;;5.50;5.10;;;17.20;97.80;;;;;;5019527;28;20505;-72
2023/05/23 04:28:11;;;;;;;5.53;4.93;;;17.20;97.90;;;;;;5019689;28;20213;-71
2023/05/23 04:30:37;;;;;;;6.47;4.60;;;17.20;98.00;;;;;;5028273;28;20197;-71
2023/05/23 04:33:03;;;;;;;6.77;5.50;;;17.20;98.00;;;;;;5020659;28;20469;-72
2023/05/23 04:35:28;;;;;;;5.97;4.87;;;17.30;97.90;;;;;;5024742;28;20206;-71
2023/05/23 04:37:55;;;;;;;6.77;4.60;;;17.40;98.50;;;;;;5028449;28;20425;-71
2023/05/23 04:40:23;;;;;;;5.27;4.77;;;17.40;98.20;;;;;;5024253;28;20166;-71
2023/05/23 04:42:50;;;;;;;5.93;4.63;;;17.30;98.00;;;;;;5029277;28;20407;-71
2023/05/23 04:45:16;;;;;;;5.90;4.03;;;17.40;98.20;;;;;;5024174;28;20481;-70
2023/05/23 04:47:43;;;;;;;5.80;5.07;;;17.50;98.40;;;;;;5030968;28;20437;-71
2023/05/23 04:50:09;;;;;;;7.43;5.20;;;17.50;98.40;;;;;;5024189;28;20517;-72
2023/05/23 04:52:35;;;;;;;8.70;5.20;;;17.50;98.40;;;;;;5026852;28;20444;-71
2023/05/23 04:55:01;;;;;;;5.17;4.67;;;17.50;98.30;;;;;;5026907;28;20524;-70
2023/05/23 04:57:27;;;;;;;7.77;5.33;;;17.50;98.60;;;;;;5024339;28;20202;-70
2023/05/23 04:59:52;;;;;;;5.93;4.90;;;17.50;98.50;;;;;;5022530;28;20181;-71
2023/05/23 05:02:18;;;;;;;5.93;4.93;;;17.30;98.70;;;;;;5014461;28;20175;-73
2023/05/23 05:04:44;;;;;;;8.87;5.00;;;17.30;98.90;;;;;;5018279;28;20220;-71
2023/05/23 05:07:10;;;;;;;6.90;4.20;;;17.30;98.90;;;;;;5025028;28;20222;-65
2023/05/23 05:09:36;;;;;;;6.63;4.60;;;17.20;99.20;;;;;;5025698;28;20493;-71
2023/05/23 05:12:01;;;;;;;4.33;3.93;;;17.20;99.70;;;;;;5026178;28;20177;-70
2023/05/23 05:14:27;;;;;;;6.10;5.50;;;17.20;99.60;;;;;;5024755;28;20456;-69
2023/05/23 05:16:56;;;;;;;7.40;4.73;;;17.10;99.80;;;;;;5023582;28;20267;-70
2023/05/23 05:19:23;;;;;;;6.00;5.40;;;17.10;99.90;;;;;;5022219;28;20197;-69
2023/05/23 05:21:49;;;;;;;5.87;5.30;;;17.10;99.90;;;;;;5025471;28;20815;-71
2023/05/23 05:24:15;;;;;;;9.17;5.20;;;17.20;99.80;;;;;;5024028;28;20471;-70
2023/05/23 05:26:41;;;;;;;5.40;4.50;;;17.10;99.80;;;;;;5024953;28;20456;-70
2023/05/23 05:29:07;;;;;;;6.30;5.33;;;17.10;99.90;;;;;;5025190;28;20413;-70
2023/05/23 05:31:34;;;;;;;5.90;5.27;;;17.10;99.90;;;;;;5020137;28;20439;-70
2023/05/23 05:34:00;;;;;;;5.53;5.03;;;17.10;99.80;;;;;;5013336;28;20618;-69
2023/05/23 05:36:25;;;;;;;10.43;6.63;;;17.20;99.90;;;;;;5021541;28;20449;-70
2023/05/23 05:38:52;;;;;;;6.37;5.00;;;17.20;99.90;;;;;;5024360;28;20192;-69
2023/05/23 05:41:17;;;;;;;6.57;4.97;;;17.10;99.90;;;;;;5021806;28;20604;-70
2023/05/23 05:43:43;;;;;;;6.87;5.33;;;17.10;99.90;;;;;;5024774;28;20500;-69
2023/05/23 05:46:10;;;;;;;4.93;4.43;;;17.10;99.90;;;;;;5024168;28;20178;-70
2023/05/23 05:48:35;;;;;;;5.77;4.93;;;17.10;99.90;;;;;;5019539;28;20171;-71
2023/05/23 05:51:02;;;;;;;7.23;5.17;;;17.20;99.90;;;;;;5024841;28;20405;-71
2023/05/23 05:53:27;;;;;;;5.80;5.20;;;17.30;99.90;;;;;;5022673;28;20221;-70
2023/05/23 05:55:53;;;;;;;5.70;5.07;;;17.40;99.90;;;;;;5024412;28;20437;-70
2023/05/23 05:58:19;;;;;;;5.50;4.97;;;17.30;99.90;;;;;;5023053;28;20194;-70
2023/05/23 06:00:47;;;;;;;6.93;5.83;;;17.20;99.90;;;;;;5015271;28;20488;-70
2023/05/23 06:03:14;;;;;;;6.83;5.33;;;17.10;99.90;;;;;;5013088;28;20169;-69
2023/05/23 06:05:40;;;;;;;8.90;5.67;;;17.10;99.90;;;;;;5011860;28;20423;-70
2023/05/23 06:08:06;;;;;;;5.53;5.03;;;17.10;99.90;;;;;;5026965;28;20790;-70
2023/05/23 06:10:32;;;;;;;7.70;5.00;;;17.10;99.90;;;;;;5021855;28;20177;-72
2023/05/23 06:12:58;;;;;;;10.93;5.93;;;17.10;99.90;;;;;;5026984;28;20414;-70
2023/05/23 06:15:24;;;;;;;5.83;5.00;;;17.10;99.90;;;;;;5022575;28;20455;-70
2023/05/23 06:17:50;;;;;;;6.30;5.07;;;17.20;99.90;;;;;;5006056;28;20458;-70
2023/05/23 06:20:16;;;;;;;5.83;5.23;;;17.30;99.90;;;;;;5014645;28;20409;-69
2023/05/23 06:22:42;;;;;;;8.57;4.57;;;17.40;99.90;;;;;;5019343;28;20516;-70
2023/05/23 06:25:07;;;;;;;7.27;5.83;;;17.40;99.90;;;;;;5009521;28;20179;-69
2023/05/23 06:27:33;;;;;;;7.07;6.17;;;17.50;99.90;;;;;;5009457;28;21625;-70
2023/05/23 06:29:59;;;;;;;8.60;5.10;;;17.60;99.90;;;;;;5026252;28;20194;-71
2023/05/23 06:32:24;;;;;;;7.63;7.03;;;17.60;99.90;;;;;;5022179;28;20182;-70
2023/05/23 06:34:50;;;;;;;7.30;5.07;;;17.50;99.90;;;;;;5020770;28;20199;-71
2023/05/23 06:37:16;;;;;;;10.30;5.97;;;17.40;99.90;;;;;;5021028;28;20187;-70
2023/05/23 06:39:42;;;;;;;13.13;6.10;;;17.40;99.90;;;;;;5015851;28;20170;-70
2023/05/23 06:42:08;;;;;;;10.43;7.17;;;17.60;99.90;;;;;;5027171;28;20409;-69
2023/05/23 06:44:33;;;;;;;7.57;5.47;;;17.60;99.90;;;;;;5020924;28;20198;-71
2023/05/23 06:46:59;;;;;;;8.13;5.60;;;17.80;99.90;;;;;;5020146;28;20289;-71
2023/05/23 06:49:25;;;;;;;7.60;5.77;;;17.90;99.90;;;;;;5020356;28;20654;-70
2023/05/23 06:51:51;;;;;;;9.70;6.07;;;17.90;99.90;;;;;;5020908;28;20179;-71
2023/05/23 06:54:17;;;;;;;6.13;5.53;;;18.00;99.90;;;;;;5026496;28;20203;-70
2023/05/23 06:56:42;;;;;;;11.23;5.73;;;18.20;99.90;;;;;;5020162;28;20215;-70
2023/05/23 06:59:08;;;;;;;8.03;5.20;;;18.50;99.90;;;;;;5021934;28;20454;-70
2023/05/23 07:01:33;;;;;;;8.83;6.80;;;18.50;99.90;;;;;;5023349;28;20172;-71
2023/05/23 07:03:59;;;;;;;10.50;6.00;;;18.80;99.90;;;;;;5023566;28;20170;-71
2023/05/23 07:06:26;;;;;;;5.70;5.10;;;18.80;99.90;;;;;;5021645;28;20260;-70
2023/05/23 07:08:52;;;;;;;6.20;5.60;;;19.30;99.90;;;;;;5025036;28;20667;-71
2023/05/23 07:11:20;;;;;;;8.00;5.67;;;19.90;99.90;;;;;;5021060;28;20484;-71
2023/05/23 07:13:46;;;;;;;5.70;5.07;;;19.60;99.90;;;;;;5027349;28;21001;-71
2023/05/23 07:16:12;;;;;;;10.40;6.27;;;19.50;99.90;;;;;;5020077;28;20409;-71
2023/05/23 07:18:37;;;;;;;7.50;5.97;;;19.80;99.90;;;;;;5023281;28;20178;-71
2023/05/23 07:21:03;;;;;;;7.47;6.60;;;20.00;99.90;;;;;;5022355;28;20405;-70
2023/05/23 07:23:32;;;;;;;8.53;5.03;;;19.90;99.90;;;;;;5012678;28;20212;-71
2023/05/23 07:25:58;;;;;;;8.57;5.07;;;19.90;99.90;;;;;;5025004;28;20174;-71
2023/05/23 07:28:24;;;;;;;8.83;5.43;;;19.70;99.90;;;;;;5025927;28;20434;-71
2023/05/23 07:30:50;;;;;;;6.30;5.50;;;19.90;99.90;;;;;;5031648;28;20167;-71
2023/05/23 07:33:15;;;;;;;5.90;5.23;;;19.50;99.90;;;;;;5024535;28;20750;-69
2023/05/23 07:35:42;;;;;;;6.93;5.20;;;19.50;99.90;;;;;;5025579;28;20205;-70
2023/05/23 07:38:08;;;;;;;11.03;6.07;;;19.70;99.90;;;;;;5021665;28;20264;-70
2023/05/23 07:40:34;;;;;;;8.17;5.50;;;20.30;99.90;;;;;;5017798;28;20491;-69
2023/05/23 07:42:59;;;;;;;7.13;5.07;;;20.30;99.90;;;;;;5024153;28;20173;-71
2023/05/23 07:45:25;;;;;;;12.03;9.53;;;20.70;99.90;;;;;;5021319;28;20787;-71
2023/05/23 07:47:51;;;;;;;7.37;6.53;;;21.40;98.40;;;;;;5025808;28;20203;-69
2023/05/23 07:50:17;;;;;;;6.70;4.70;;;22.10;97.30;;;;;;5019865;28;20210;-70
2023/05/23 07:52:43;;;;;;;6.40;5.60;;;21.70;97.70;;;;;;5022944;28;20413;-70
2023/05/23 07:55:09;;;;;;;13.10;8.03;;;21.20;98.00;;;;;;5021314;28;20283;-72
2023/05/23 07:57:34;;;;;;;5.80;4.83;;;21.10;98.60;;;;;;5022319;28;20533;-70
2023/05/23 08:00:00;;;;;;;7.00;5.67;;;21.10;98.30;;;;;;5018626;28;20169;-69
2023/05/23 08:02:25;;;;;;;7.10;5.97;;;21.20;99.00;;;;;;5013461;28;20543;-71
2023/05/23 08:04:52;;;;;;;5.40;4.90;;;21.70;98.10;;;;;;5021664;28;20627;-71
2023/05/23 08:07:18;;;;;;;8.20;5.23;;;21.10;98.90;;;;;;5021439;28;20195;-71
2023/05/23 08:09:44;;;;;;;6.20;5.70;;;21.40;98.50;;;;;;5026553;28;20429;-70
2023/05/23 08:12:10;;;;;;;5.30;4.80;;;21.20;98.70;;;;;;5027307;28;20216;-71
2023/05/23 08:14:35;;;;;;;15.17;9.47;;;21.70;98.70;;;;;;5026445;28;20884;-71
2023/05/23 08:17:01;;;;;;;10.53;9.43;;;21.70;98.50;;;;;;5020342;28;20204;-71
2023/05/23 08:19:28;;;;;;;5.50;5.07;;;21.80;98.60;;;;;;5023566;28;20180;-70
2023/05/23 08:21:53;;;;;;;7.67;6.47;;;22.40;98.10;;;;;;5026616;28;20824;-70
2023/05/23 08:24:20;;;;;;;6.20;4.73;;;22.50;98.30;;;;;;5025762;28;20424;-70
2023/05/23 08:26:46;;;;;;;7.97;7.10;;;22.40;98.20;;;;;;5026573;28;20224;-72
2023/05/23 08:29:12;;;;;;;5.83;4.93;;;22.20;98.50;;;;;;5026498;28;20485;-71
2023/05/23 08:31:38;;;;;;;7.43;6.73;;;22.70;97.70;;;;;;5026216;28;20424;-70
2023/05/23 08:34:03;;;;;;;8.07;5.20;;;22.90;97.90;;;;;;5026456;28;20480;-70
2023/05/23 08:36:33;;;;;;;7.77;6.97;;;22.70;98.40;;;;;;5024051;28;20215;-71
2023/05/23 08:38:58;;;;;;;7.70;6.33;;;22.00;98.80;;;;;;5022857;28;20179;-71
2023/05/23 08:41:24;;;;;;;6.07;5.47;;;22.30;98.90;;;;;;5024511;28;20414;-70
2023/05/23 08:43:50;;;;;;;5.97;5.17;;;22.10;99.30;;;;;;5026511;28;20194;-70
2023/05/23 08:46:16;;;;;;;5.93;5.40;;;22.20;99.50;;;;;;5022063;28;20424;-69
2023/05/23 08:48:46;;;;;;;6.37;5.77;;;22.50;99.30;;;;;;5022586;28;20171;-69
2023/05/23 08:51:14;;;;;;;8.77;7.87;;;22.20;99.10;;;;;;5026819;28;20260;-71
2023/05/23 08:53:45;;;;;;;6.20;5.50;;;22.60;99.90;;;;;;5018002;28;20420;-70
2023/05/23 08:56:12;;;;;;;16.50;13.93;;;22.60;99.80;;;;;;5023216;28;20481;-71
2023/05/23 08:58:40;;;;;;;5.93;5.40;;;22.50;99.90;;;;;;5029078;28;20747;-71
2023/05/23 09:01:08;;;;;;;5.97;5.00;;;23.20;99.90;;;;;;5015186;28;20760;-68
2023/05/23 09:03:36;;;;;;;9.70;4.17;;;23.20;99.90;;;;;;5026776;28;20836;-71
2023/05/23 09:06:08;;;;;;;7.53;4.63;;;24.00;99.90;;;;;;5017960;28;20416;-71
2023/05/23 09:08:35;;;;;;;5.60;5.10;;;25.50;98.10;;;;;;5029484;28;20784;-71
2023/05/23 09:11:05;;;;;;;5.90;4.90;;;25.40;97.20;;;;;;5022423;28;20411;-71
2023/05/23 09:13:31;;;;;;;4.83;4.33;;;25.50;98.00;;;;;;5023383;28;20473;-71
2023/05/23 09:16:00;;;;;;;6.40;5.80;;;25.20;98.10;;;;;;5025763;28;20415;-71
2023/05/23 09:18:26;;;;;;;5.73;5.33;;;25.00;98.90;;;;;;5023854;28;20439;-71
2023/05/23 09:20:52;;;;;;;5.57;5.17;;;25.60;98.60;;;;;;5026742;28;20456;-72
2023/05/23 09:23:19;;;;;;;5.30;4.80;;;26.70;97.30;;;;;;5022782;28;20458;-71
2023/05/23 09:25:48;;;;;;;5.80;5.30;;;27.20;96.60;;;;;;5027894;28;20242;-72
2023/05/23 09:28:13;;;;;;;5.77;5.20;;;27.30;96.50;;;;;;5021904;28;20520;-72
2023/05/23 09:30:39;;;;;;;8.10;5.33;;;26.90;96.60;;;;;;5009636;28;20422;-71
2023/05/23 09:33:05;;;;;;;7.10;5.57;;;26.40;97.80;;;;;;5024674;28;20176;-71
2023/05/23 09:35:31;;;;;;;5.40;5.00;;;25.10;99.40;;;;;;5024326;28;20475;-71
2023/05/23 09:38:00;;;;;;;5.93;5.30;;;25.40;99.60;;;;;;5026365;28;20299;-71
2023/05/23 09:40:32;;;;;;;7.03;5.93;;;25.80;99.50;;;;;;5022030;28;20623;-71
2023/05/23 09:43:06;;;;;;;5.93;5.43;;;26.10;99.00;;;;;;5025487;28;20433;-71
2023/05/23 09:45:32;;;;;;;7.57;5.70;;;25.20;99.90;;;;;;5024114;28;20418;-70
2023/05/23 09:47:58;;;;;;;5.97;5.47;;;24.80;99.90;;;;;;5018592;28;20435;-70
2023/05/23 09:50:29;;;;;;;6.23;5.63;;;24.80;99.90;;;;;;5023197;28;20415;-70
2023/05/23 09:52:55;;;;;;;6.90;6.23;;;24.60;99.90;;;;;;5017279;28;20230;-72
2023/05/23 09:55:20;;;;;;;7.37;6.20;;;24.70;99.90;;;;;;5018748;28;20545;-72
2023/05/23 09:57:51;;;;;;;7.87;5.80;;;24.50;99.90;;;;;;5022838;28;20199;-72
2023/05/23 10:00:19;;;;;;;6.17;5.57;;;24.90;99.90;;;;;;5016285;28;20318;-70
2023/05/23 10:02:57;;;;;;;6.10;5.50;;;25.20;99.90;;;;;;5015817;28;20417;-71
2023/05/23 10:05:33;;;;;;;6.70;6.10;;;24.90;99.90;;;;;;5015343;28;20573;-71
2023/05/23 10:08:01;;;;;;;8.77;6.57;;;24.50;99.90;;;;;;5009908;28;20480;-71
2023/05/23 10:10:32;;;;;;;5.47;4.97;;;25.20;99.90;;;;;;5020602;28;20426;-72
2023/05/23 10:13:02;;;;;;;8.23;6.40;;;25.40;99.90;;;;;;5017824;28;20420;-72
2023/05/23 10:15:34;;;;;;;7.67;6.40;;;24.90;99.90;;;;;;5020718;28;20575;-71
2023/05/23 10:18:10;;;;;;;8.30;6.23;;;23.90;99.90;;;;;;5016422;28;20528;-70
2023/05/23 10:20:39;;;;;;;13.53;11.70;;;23.60;99.90;;;;;;5027860;28;20430;-72
2023/05/23 10:23:05;;;;;;;6.60;5.40;;;23.60;99.90;;;;;;5015189;28;20730;-70
2023/05/23 10:25:30;;;;;;;7.07;6.30;;;24.10;99.90;;;;;;5017916;28;20415;-72
2023/05/23 10:27:58;;;;;;;6.07;5.57;;;23.20;99.90;;;;;;5020334;28;20221;-71
2023/05/23 10:30:27;;;;;;;6.20;5.60;;;23.70;99.90;;;;;;5022306;28;20180;-71
2023/05/23 10:32:57;;;;;;;11.50;7.00;;;24.00;99.90;;;;;;5024215;28;20417;-72
2023/05/23 10:35:28;;;;;;;6.87;6.17;;;24.20;99.90;;;;;;5021974;28;20463;-72
2023/05/23 10:38:03;;;;;;;7.73;6.93;;;24.70;99.90;;;;;;5024559;28;20498;-70
2023/05/23 10:41:03;;;;;;;21.93;17.13;;;23.90;99.90;;;;;;5020177;28;20458;-69
2023/05/23 10:43:51;;;;;;;11.60;10.37;;;24.50;99.90;;;;;;5042659;28;20425;-70
2023/05/23 10:46:22;;;;;;;7.27;6.57;;;24.10;99.90;;;;;;5022215;28;20417;-72
2023/05/23 10:48:56;;;;;;;13.70;12.43;;;23.40;99.90;;;;;;5022349;28;20413;-70
2023/05/23 10:51:21;;;;;;;29.40;24.83;;;23.00;99.90;;;;;;5026981;28;20447;-70
2023/05/23 10:53:53;;;;;;;16.63;15.03;;;23.20;99.90;;;;;;5021266;28;20979;-71
2023/05/23 10:56:23;;;;;;;10.80;9.90;;;23.80;99.90;;;;;;5020686;28;20654;-71
2023/05/23 10:58:57;;;;;;;15.33;13.90;;;23.80;99.90;;;;;;5023606;28;20409;-70
2023/05/23 11:01:23;;;;;;;21.90;19.60;;;23.70;99.90;;;;;;5012874;28;20766;-70
2023/05/23 11:03:51;;;;;;;26.63;23.03;;;23.40;99.90;;;;;;5015838;28;20779;-70
2023/05/23 11:06:43;;;;;;;12.73;9.60;;;23.20;99.90;;;;;;5021305;28;20550;-71
2023/05/23 11:09:18;;;;;;;17.57;13.87;;;23.20;99.90;;;;;;5020214;28;20851;-72
2023/05/23 11:11:50;;;;;;;11.10;10.10;;;23.10;99.90;;;;;;5011903;28;20878;-71
2023/05/23 11:14:17;;;;;;;11.90;10.43;;;23.10;99.90;;;;;;5021454;28;20887;-64
2023/05/23 11:16:48;;;;;;;11.83;10.63;;;22.20;99.90;;;;;;5023956;28;20422;-71
2023/05/23 11:19:29;;;;;;;10.83;9.83;;;22.30;99.90;;;;;;5021822;28;20402;-70
2023/05/23 11:22:00;;;;;;;13.10;11.80;;;22.60;99.90;;;;;;5015707;28;20511;-73
2023/05/23 11:24:52;;;;;;;27.50;23.57;;;22.30;99.90;;;;;;5037512;28;21045;-71
2023/05/23 11:27:24;;;;;;;16.93;15.13;;;22.50;99.90;;;;;;5022511;28;20551;-74
2023/05/23 11:29:57;;;;;;;15.00;13.50;;;22.70;99.90;;;;;;5020482;28;20401;-71
2023/05/23 11:32:23;;;;;;;14.67;13.17;;;22.70;99.90;;;;;;5014099;28;20437;-72
2023/05/23 11:34:49;;;;;;;14.77;12.77;;;22.40;99.90;;;;;;5022588;28;20454;-72
2023/05/23 11:37:16;;;;;;;13.10;11.70;;;22.80;99.90;;;;;;5026154;28;20487;-68
2023/05/23 11:39:42;;;;;;;15.10;13.60;;;22.80;99.90;;;;;;5020307;28;20179;-69
2023/05/23 11:42:08;;;;;;;15.80;13.40;;;22.50;99.90;;;;;;5026555;28;20410;-70
2023/05/23 11:44:33;;;;;;;25.20;19.57;;;21.90;99.90;;;;;;5020016;28;20184;-71
2023/05/23 11:47:03;;;;;;;46.83;37.50;;;21.60;99.90;;;;;;5020086;28;20232;-70
2023/05/23 11:49:39;;;;;;;15.60;14.00;;;21.40;99.90;;;;;;5025224;28;20183;-70
2023/05/23 11:52:06;;;;;;;17.97;15.80;;;21.30;99.90;;;;;;5015169;28;20411;-72
2023/05/23 11:54:32;;;;;;;18.73;16.77;;;21.60;99.90;;;;;;5026056;28;20543;-70
2023/05/23 11:56:58;;;;;;;25.20;21.67;;;22.10;99.90;;;;;;5019594;28;20460;-70
2023/05/23 11:59:25;;;;;;;37.30;29.17;;;22.00;99.90;;;;;;5022691;28;20410;-70
2023/05/23 12:01:51;;;;;;;19.87;17.73;;;21.50;99.90;;;;;;5020913;28;20171;-71
2023/05/23 12:04:17;;;;;;;18.50;15.97;;;21.50;99.90;;;;;;5020863;28;20420;-71
2023/05/23 12:06:49;;;;;;;16.17;14.03;;;22.00;99.90;;;;;;5019481;28;20430;-71
2023/05/23 12:09:15;;;;;;;13.90;12.30;;;21.70;99.90;;;;;;5021521;28;20254;-71
2023/05/23 12:11:42;;;;;;;16.90;13.53;;;21.30;99.90;;;;;;5015191;28;20424;-71
2023/05/23 12:14:13;;;;;;;18.60;13.70;;;20.70;99.90;;;;;;5023192;28;20873;-71
2023/05/23 12:16:38;;;;;;;15.80;14.20;;;21.40;99.90;;;;;;5009812;28;20429;-71
2023/05/23 12:19:05;;;;;;;19.20;14.50;;;21.60;99.90;;;;;;5021872;28;20406;-70
2023/05/23 12:21:47;;;;;;;14.43;12.90;;;22.20;99.90;;;;;;5021723;28;20192;-71
2023/05/23 12:24:21;;;;;;;15.57;12.77;;;22.20;99.90;;;;;;5021747;28;20504;-71
2023/05/23 12:26:52;;;;;;;14.47;12.33;;;21.70;99.90;;;;;;5001876;28;20461;-71
2023/05/23 12:29:21;;;;;;;17.90;13.00;;;22.00;99.90;;;;;;5021537;28;20421;-71
2023/05/23 12:31:50;;;;;;;17.57;14.00;;;21.60;99.90;;;;;;5022643;28;20411;-70
2023/05/23 12:34:16;;;;;;;18.17;12.70;;;22.00;99.90;;;;;;5022440;28;20695;-72
2023/05/23 12:36:43;;;;;;;14.13;12.37;;;22.00;99.90;;;;;;5021218;28;20923;-72
2023/05/23 12:39:09;;;;;;;15.83;11.90;;;21.70;99.90;;;;;;5013922;28;20406;-70
2023/05/23 12:41:35;;;;;;;17.90;12.30;;;21.60;99.90;;;;;;5020888;28;20782;-71
2023/05/23 12:44:01;;;;;;;18.67;13.47;;;21.50;99.90;;;;;;5034380;28;20414;-71